Time;durP1;ratioP1;P1;durP2;ratioP2;P2;SDS_P1;SDS_P2;PMS_P1;PMS_P2;Temp;Humidity;BMP_temperature;BMP_pressure;BME280_temperature;BME280_humidity;BME280_pressure;Samples;Min_cycle;Max_cycle;Signal;HPM_P1;HPM_P2
2022/01/14 00:01:09;;;;;;;24.50;10.93;;;5.90;99.90;;;;;;5073604;28;20455;-74
2022/01/14 00:03:36;;;;;;;27.58;10.82;;;5.90;99.90;;;;;;5073600;28;20189;-74
2022/01/14 00:06:03;;;;;;;19.30;10.73;;;5.90;99.90;;;;;;5073260;28;20045;-73
2022/01/14 00:08:30;;;;;;;17.08;10.68;;;5.90;99.90;;;;;;5072889;28;20561;-73
2022/01/14 00:10:58;;;;;;;18.48;9.60;;;5.80;99.90;;;;;;5073402;28;20044;-73
2022/01/14 00:13:50;;;;;;;23.13;10.95;;;5.90;99.90;;;;;;5073270;28;20052;-73
2022/01/14 00:16:19;;;;;;;19.13;10.00;;;6.00;99.90;;;;;;5073118;28;20052;-73
2022/01/14 00:18:46;;;;;;;21.58;10.93;;;5.80;99.90;;;;;;5073767;28;20497;-74
2022/01/14 00:21:13;;;;;;;19.58;9.98;;;5.80;99.90;;;;;;5073693;28;20549;-73
2022/01/14 00:23:41;;;;;;;23.50;10.40;;;5.90;99.90;;;;;;5072945;28;20101;-74
2022/01/14 00:31:49;;;;;;;20.10;10.07;;;5.90;99.90;;;;;;5072791;28;20067;-74
2022/01/14 00:34:17;;;;;;;22.63;11.32;;;5.90;99.90;;;;;;5073517;28;20063;-73
2022/01/14 00:36:44;;;;;;;19.27;10.02;;;5.90;99.90;;;;;;5072224;28;20591;-74
2022/01/14 00:39:13;;;;;;;16.48;9.75;;;5.80;99.90;;;;;;5072000;28;20101;-74
2022/01/14 00:41:41;;;;;;;23.58;11.07;;;5.90;99.90;;;;;;5072997;28;20049;-74
2022/01/14 00:44:11;;;;;;;21.27;10.70;;;5.90;99.90;;;;;;5072632;28;20057;-73
2022/01/14 00:46:40;;;;;;;24.38;10.75;;;5.90;99.90;;;;;;5072966;28;20048;-74
2022/01/14 00:49:07;;;;;;;18.45;10.43;;;5.90;99.90;;;;;;5073114;28;20052;-72
2022/01/14 00:51:35;;;;;;;16.10;10.80;;;5.90;99.90;;;;;;5072186;28;20060;-73
2022/01/14 00:54:02;;;;;;;22.70;10.98;;;5.90;99.90;;;;;;5073054;28;20483;-74
2022/01/14 00:56:33;;;;;;;19.77;10.63;;;5.80;99.90;;;;;;5072214;28;20049;-73
2022/01/14 00:59:14;;;;;;;22.45;10.80;;;5.80;99.90;;;;;;5072290;28;20497;-72
2022/01/14 01:01:44;;;;;;;22.75;10.38;;;5.70;99.90;;;;;;5072361;28;20496;-73
2022/01/14 01:04:12;;;;;;;24.65;11.40;;;5.60;99.90;;;;;;5072682;28;20113;-73
2022/01/14 01:06:39;;;;;;;32.17;12.27;;;5.60;99.90;;;;;;5072018;28;20111;-73
2022/01/14 01:09:10;;;;;;;25.67;10.93;;;5.50;99.90;;;;;;5072517;28;20381;-73
2022/01/14 01:11:40;;;;;;;23.13;10.93;;;5.50;99.90;;;;;;5072885;28;20137;-73
2022/01/14 01:14:11;;;;;;;25.57;11.10;;;5.40;99.90;;;;;;5075765;28;20063;-73
2022/01/14 01:16:38;;;;;;;21.65;11.25;;;5.50;99.90;;;;;;5091584;28;20283;-73
2022/01/14 01:19:07;;;;;;;23.73;10.60;;;5.40;99.90;;;;;;5090744;28;20125;-73
2022/01/14 01:21:34;;;;;;;27.70;11.15;;;5.40;99.90;;;;;;5092356;28;20065;-73
2022/01/14 01:24:01;;;;;;;27.48;11.80;;;5.50;99.90;;;;;;5087088;28;20105;-74
2022/01/14 01:26:31;;;;;;;23.63;12.00;;;5.40;99.90;;;;;;5076675;28;20468;-75
2022/01/14 01:29:05;;;;;;;24.13;11.80;;;5.50;99.90;;;;;;5077149;28;20056;-74
2022/01/14 01:31:36;;;;;;;19.48;11.52;;;5.40;99.90;;;;;;5076427;28;20052;-74
2022/01/14 01:34:03;;;;;;;27.27;11.07;;;5.40;99.90;;;;;;5075663;28;20044;-74
2022/01/14 01:36:32;;;;;;;22.17;11.55;;;5.50;99.90;;;;;;5073725;28;20052;-74
2022/01/14 01:38:59;;;;;;;24.90;12.27;;;5.50;99.90;;;;;;5071958;28;20048;-74
2022/01/14 01:41:26;;;;;;;24.88;12.73;;;5.50;99.90;;;;;;5071651;28;20117;-73
2022/01/14 01:43:54;;;;;;;25.98;11.35;;;5.50;99.90;;;;;;5071755;28;20084;-74
2022/01/14 01:46:23;;;;;;;24.60;11.60;;;5.50;99.90;;;;;;5071933;28;20082;-74
2022/01/14 01:48:52;;;;;;;27.17;11.43;;;5.60;99.90;;;;;;5071461;28;20084;-74
2022/01/14 01:51:19;;;;;;;33.92;12.75;;;5.60;99.90;;;;;;5071549;28;20185;-74
2022/01/14 01:53:48;;;;;;;29.15;12.10;;;5.60;99.90;;;;;;5071514;28;20106;-74
2022/01/14 01:56:16;;;;;;;28.15;11.70;;;5.70;99.90;;;;;;5070740;28;20040;-74
2022/01/14 01:58:44;;;;;;;24.35;12.60;;;5.70;99.90;;;;;;5071770;28;20060;-75
2022/01/14 02:01:11;;;;;;;32.67;11.90;;;5.70;99.90;;;;;;5071341;28;20106;-75
2022/01/14 02:03:39;;;;;;;23.83;11.90;;;5.70;99.90;;;;;;5071706;28;20102;-74
2022/01/14 02:06:06;;;;;;;27.10;12.00;;;5.80;99.90;;;;;;5071593;28;20044;-74
2022/01/14 02:08:33;;;;;;;24.27;12.00;;;5.80;99.90;;;;;;5071296;28;20052;-74
2022/01/14 02:11:01;;;;;;;18.90;11.13;;;5.80;99.90;;;;;;5071888;28;20052;-74
2022/01/14 02:13:30;;;;;;;28.80;12.02;;;5.80;99.90;;;;;;5071960;28;20048;-74
2022/01/14 02:19:00;;;;;;;28.15;12.85;;;5.90;99.90;;;;;;5062871;28;20404;-73
2022/01/14 02:24:33;;;;;;;23.17;12.15;;;5.90;99.90;;;;;;5071329;28;20069;-73
2022/01/14 02:27:00;;;;;;;27.45;11.98;;;5.90;99.90;;;;;;5076364;28;20045;-73
2022/01/14 02:29:27;;;;;;;25.85;12.30;;;5.90;99.90;;;;;;5072521;28;20064;-73
2022/01/14 02:31:55;;;;;;;25.63;12.85;;;5.90;99.90;;;;;;5073165;28;20052;-73
2022/01/14 02:34:22;;;;;;;27.30;13.30;;;5.90;99.90;;;;;;5071020;28;20102;-73
2022/01/14 02:36:50;;;;;;;29.55;12.45;;;5.90;99.90;;;;;;5071170;28;20053;-72
2022/01/14 02:39:19;;;;;;;22.17;11.80;;;6.00;99.90;;;;;;5071590;28;20048;-73
2022/01/14 02:41:47;;;;;;;29.20;12.73;;;5.90;99.90;;;;;;5071788;28;20048;-73
2022/01/14 02:44:19;;;;;;;22.05;13.38;;;5.90;99.90;;;;;;5070800;28;20106;-72
2022/01/14 02:46:53;;;;;;;22.63;12.95;;;5.90;99.90;;;;;;5071344;28;20044;-74
2022/01/14 02:49:20;;;;;;;25.58;13.18;;;5.90;99.90;;;;;;5071378;28;20075;-73
2022/01/14 02:51:47;;;;;;;24.52;12.85;;;5.90;99.90;;;;;;5070435;28;20459;-73
2022/01/14 02:54:21;;;;;;;20.83;12.85;;;6.00;99.90;;;;;;5071402;28;20098;-74
2022/01/14 02:56:49;;;;;;;23.65;13.88;;;6.00;99.90;;;;;;5071512;28;20134;-73
2022/01/14 02:59:17;;;;;;;20.80;13.20;;;6.00;99.90;;;;;;5070646;28;20157;-73
2022/01/14 03:01:46;;;;;;;25.02;12.77;;;6.20;99.90;;;;;;5071926;28;20499;-73
2022/01/14 03:04:15;;;;;;;28.25;13.25;;;6.00;99.90;;;;;;5074498;28;20055;-72
2022/01/14 03:06:43;;;;;;;22.20;12.65;;;6.00;99.90;;;;;;5074858;28;20411;-74
2022/01/14 03:09:10;;;;;;;28.35;14.27;;;6.00;99.90;;;;;;5074630;28;20048;-73
2022/01/14 03:11:44;;;;;;;21.75;13.10;;;6.00;99.90;;;;;;5073952;28;20110;-73
2022/01/14 03:14:13;;;;;;;25.58;13.10;;;6.10;99.90;;;;;;5074778;28;20048;-73
2022/01/14 03:16:42;;;;;;;22.95;12.93;;;6.10;99.90;;;;;;5074568;28;20047;-73
2022/01/14 03:19:15;;;;;;;23.80;13.82;;;6.10;99.90;;;;;;5073915;28;20045;-74
2022/01/14 03:21:43;;;;;;;25.60;14.18;;;6.10;99.90;;;;;;5074184;28;20117;-73
2022/01/14 03:24:21;;;;;;;25.48;13.30;;;6.20;99.90;;;;;;5074630;28;20408;-73
2022/01/14 03:26:51;;;;;;;26.52;12.50;;;6.10;99.90;;;;;;5074167;28;20059;-74
2022/01/14 03:29:19;;;;;;;25.27;13.88;;;6.20;99.90;;;;;;5074575;28;20049;-73
2022/01/14 03:31:46;;;;;;;26.58;13.18;;;6.20;99.90;;;;;;5074268;28;20412;-73
2022/01/14 03:34:14;;;;;;;26.50;12.90;;;6.10;99.90;;;;;;5075106;28;20056;-74
2022/01/14 03:36:41;;;;;;;26.95;13.48;;;6.20;99.90;;;;;;5074034;28;20046;-73
2022/01/14 03:39:08;;;;;;;29.10;14.40;;;6.20;99.90;;;;;;5073934;28;20500;-73
2022/01/14 03:41:34;;;;;;;27.63;13.30;;;6.20;99.90;;;;;;5073625;28;20409;-73
2022/01/14 03:44:03;;;;;;;28.13;12.73;;;6.20;99.90;;;;;;5074132;28;20098;-74
2022/01/14 03:46:30;;;;;;;23.73;13.48;;;6.20;99.90;;;;;;5073057;28;20059;-73
2022/01/14 03:48:57;;;;;;;27.88;13.55;;;6.20;99.90;;;;;;5073738;28;20056;-73
2022/01/14 03:51:24;;;;;;;22.20;12.82;;;6.20;99.90;;;;;;5073390;28;20052;-73
2022/01/14 03:53:51;;;;;;;26.30;13.63;;;6.40;99.90;;;;;;5073318;28;20059;-75
2022/01/14 03:56:18;;;;;;;26.40;13.05;;;6.20;99.90;;;;;;5073774;28;20048;-75
2022/01/14 03:58:45;;;;;;;25.50;13.50;;;6.20;99.90;;;;;;5073842;28;20052;-71
2022/01/14 04:01:14;;;;;;;24.58;13.80;;;6.20;99.90;;;;;;5073426;28;20074;-74
2022/01/14 04:03:42;;;;;;;28.45;14.57;;;6.30;99.90;;;;;;5073735;28;20049;-74
2022/01/14 04:06:10;;;;;;;31.33;13.68;;;6.30;99.90;;;;;;5073923;28;20097;-74
2022/01/14 04:08:38;;;;;;;24.90;13.77;;;6.30;99.90;;;;;;5073031;28;20044;-74
2022/01/14 04:11:06;;;;;;;24.17;13.25;;;6.30;99.90;;;;;;5074061;28;20060;-74
2022/01/14 04:13:43;;;;;;;27.52;13.63;;;6.20;99.90;;;;;;5073497;28;20059;-73
2022/01/14 04:16:11;;;;;;;30.50;14.85;;;6.20;99.90;;;;;;5072887;28;20520;-74
2022/01/14 04:18:40;;;;;;;26.67;13.77;;;6.20;99.90;;;;;;5073361;28;20048;-73
2022/01/14 04:21:06;;;;;;;25.42;12.68;;;6.20;99.90;;;;;;5074493;28;20561;-73
2022/01/14 04:23:33;;;;;;;29.15;13.43;;;6.20;99.90;;;;;;5074531;28;20056;-73
2022/01/14 04:26:00;;;;;;;27.50;13.70;;;6.20;99.90;;;;;;5074790;28;20052;-73
2022/01/14 04:28:29;;;;;;;24.67;13.43;;;6.10;99.90;;;;;;5074701;28;20485;-74
2022/01/14 04:30:58;;;;;;;24.50;13.45;;;6.00;99.90;;;;;;5096504;28;20104;-74
2022/01/14 04:33:28;;;;;;;26.00;13.27;;;6.00;99.90;;;;;;5098692;28;20069;-74
2022/01/14 04:35:58;;;;;;;31.03;14.63;;;5.90;99.90;;;;;;5097492;28;20028;-74
2022/01/14 04:38:26;;;;;;;30.65;14.10;;;5.90;99.90;;;;;;5097314;28;20267;-72
2022/01/14 04:40:53;;;;;;;29.40;14.07;;;5.80;99.90;;;;;;5097093;28;20055;-72
2022/01/14 04:43:21;;;;;;;26.05;13.05;;;5.90;99.90;;;;;;5096287;28;20045;-73
2022/01/14 04:46:03;;;;;;;27.52;13.35;;;5.80;99.90;;;;;;5096523;28;20028;-74
2022/01/14 04:48:30;;;;;;;30.15;12.88;;;5.80;99.90;;;;;;5095453;28;20040;-72
2022/01/14 04:51:00;;;;;;;28.90;13.93;;;5.80;99.90;;;;;;5092335;28;20106;-72
2022/01/14 04:53:27;;;;;;;24.08;13.07;;;5.90;99.90;;;;;;5078265;28;20052;-73
2022/01/14 04:55:55;;;;;;;25.50;13.43;;;5.80;99.90;;;;;;5072486;28;20053;-74
2022/01/14 04:58:22;;;;;;;19.38;12.77;;;5.80;99.90;;;;;;5072083;28;20098;-73
2022/01/14 05:00:49;;;;;;;25.83;13.65;;;5.80;99.90;;;;;;5072212;28;20060;-74
2022/01/14 05:03:16;;;;;;;26.52;13.57;;;5.80;99.90;;;;;;5072465;28;20055;-73
2022/01/14 05:05:46;;;;;;;31.27;14.13;;;5.80;99.90;;;;;;5071891;28;20052;-74
2022/01/14 05:08:20;;;;;;;25.50;13.48;;;6.00;99.90;;;;;;5072383;28;20053;-74
2022/01/14 05:11:03;;;;;;;30.80;15.07;;;5.80;99.90;;;;;;5061774;28;20055;-73
2022/01/14 05:13:30;;;;;;;28.65;15.10;;;5.80;99.90;;;;;;5073324;28;20420;-73
2022/01/14 05:15:58;;;;;;;23.30;13.25;;;5.80;99.90;;;;;;5073458;28;20044;-73
2022/01/14 05:18:25;;;;;;;27.48;13.73;;;5.80;99.90;;;;;;5071881;28;20045;-73
2022/01/14 05:20:52;;;;;;;32.75;15.32;;;5.80;99.90;;;;;;5072371;28;20109;-74
2022/01/14 05:23:20;;;;;;;25.48;14.07;;;5.90;99.90;;;;;;5072331;28;20053;-73
2022/01/14 05:25:47;;;;;;;26.42;14.05;;;5.80;99.90;;;;;;5070742;28;20061;-73
2022/01/14 05:28:14;;;;;;;22.45;13.32;;;5.80;99.90;;;;;;5072130;28;20090;-73
2022/01/14 05:30:41;;;;;;;29.42;14.05;;;5.80;99.90;;;;;;5072214;28;20122;-74
2022/01/14 05:33:08;;;;;;;29.65;14.57;;;5.80;99.90;;;;;;5071680;28;20059;-74
2022/01/14 05:35:34;;;;;;;29.48;13.70;;;5.80;99.90;;;;;;5071606;28;20059;-73
2022/01/14 05:38:01;;;;;;;38.63;15.50;;;5.90;99.90;;;;;;5064430;28;20052;-78
2022/01/14 05:40:30;;;;;;;29.05;14.70;;;5.90;99.90;;;;;;5068198;28;20637;-74
2022/01/14 05:42:57;;;;;;;30.40;14.45;;;5.90;99.90;;;;;;5070792;28;20376;-74
2022/01/14 05:45:24;;;;;;;27.02;14.38;;;5.90;99.90;;;;;;5069986;28;20565;-74
2022/01/14 05:47:51;;;;;;;22.33;14.05;;;5.90;99.90;;;;;;5070072;28;20466;-74
2022/01/14 05:50:20;;;;;;;25.20;13.65;;;5.90;99.90;;;;;;5070731;28;20806;-74
2022/01/14 05:52:48;;;;;;;26.60;14.63;;;5.90;99.90;;;;;;5070429;28;20062;-74
2022/01/14 05:55:17;;;;;;;27.13;14.98;;;5.90;99.90;;;;;;5070319;28;20377;-75
2022/01/14 05:57:46;;;;;;;36.35;14.88;;;5.90;99.90;;;;;;5068356;28;20049;-74
2022/01/14 06:00:15;;;;;;;29.40;13.45;;;5.90;99.90;;;;;;5070180;28;20056;-74
2022/01/14 06:02:42;;;;;;;29.15;14.15;;;6.00;99.90;;;;;;5070566;28;20060;-74
2022/01/14 06:05:09;;;;;;;26.27;14.73;;;6.00;99.90;;;;;;5070934;28;20048;-74
2022/01/14 06:07:36;;;;;;;24.92;13.65;;;6.00;99.90;;;;;;5069960;28;20496;-75
2022/01/14 06:10:03;;;;;;;26.83;13.18;;;6.00;99.90;;;;;;5070120;28;20496;-74
2022/01/14 06:12:30;;;;;;;22.50;12.60;;;6.00;99.90;;;;;;5069860;28;20561;-74
2022/01/14 06:14:58;;;;;;;29.25;13.85;;;6.00;99.90;;;;;;5071049;28;20098;-75
2022/01/14 06:17:25;;;;;;;23.58;13.13;;;6.00;99.90;;;;;;5071107;28;20098;-74
2022/01/14 06:19:52;;;;;;;23.20;13.73;;;6.00;99.90;;;;;;5070595;28;20355;-75
2022/01/14 06:22:18;;;;;;;31.05;14.18;;;6.00;99.90;;;;;;5069924;28;20561;-75
2022/01/14 06:24:45;;;;;;;28.52;13.25;;;6.00;99.90;;;;;;5070580;28;20064;-74
2022/01/14 06:27:12;;;;;;;23.55;12.98;;;6.00;99.90;;;;;;5070189;28;20098;-74
2022/01/14 06:29:39;;;;;;;25.50;14.25;;;6.00;99.90;;;;;;5070425;28;20044;-74
2022/01/14 06:32:08;;;;;;;31.95;14.02;;;6.00;99.90;;;;;;5070171;28;20125;-74
2022/01/14 06:34:35;;;;;;;26.70;14.30;;;6.00;99.90;;;;;;5067439;28;20048;-74
2022/01/14 06:37:02;;;;;;;24.83;13.40;;;6.00;99.90;;;;;;5072497;28;20049;-73
2022/01/14 06:39:29;;;;;;;25.15;13.50;;;6.00;99.90;;;;;;5074492;28;20068;-73
2022/01/14 06:41:56;;;;;;;24.42;13.38;;;6.00;99.90;;;;;;5073578;28;20094;-73
2022/01/14 06:44:22;;;;;;;28.00;13.25;;;6.00;99.90;;;;;;5074046;28;20106;-73
2022/01/14 06:46:49;;;;;;;24.38;12.77;;;6.00;99.90;;;;;;5073843;28;20048;-73
2022/01/14 06:49:18;;;;;;;22.85;12.38;;;6.00;99.90;;;;;;5070507;28;20141;-74
2022/01/14 06:51:44;;;;;;;26.15;12.70;;;6.00;99.90;;;;;;5070081;28;20465;-73
2022/01/14 06:54:11;;;;;;;24.35;12.43;;;6.00;99.90;;;;;;5065820;28;20118;-73
2022/01/14 06:56:38;;;;;;;22.77;12.68;;;6.00;99.90;;;;;;5067442;28;20110;-74
2022/01/14 06:59:06;;;;;;;28.42;12.75;;;6.00;99.90;;;;;;5069746;28;20180;-73
2022/01/14 07:01:33;;;;;;;23.77;12.52;;;6.00;99.90;;;;;;5071423;28;20565;-73
2022/01/14 07:03:59;;;;;;;25.92;12.80;;;6.00;99.90;;;;;;5071604;28;20044;-73
2022/01/14 07:06:28;;;;;;;22.58;11.50;;;6.00;99.90;;;;;;5071958;28;20089;-74
2022/01/14 07:08:55;;;;;;;24.30;11.32;;;6.00;99.90;;;;;;5071250;28;20066;-74
2022/01/14 07:11:25;;;;;;;30.13;11.75;;;6.00;99.90;;;;;;5065326;28;20125;-74
2022/01/14 07:13:52;;;;;;;28.63;11.10;;;6.00;99.90;;;;;;5067615;28;20138;-74
2022/01/14 07:16:19;;;;;;;25.75;11.25;;;6.00;99.90;;;;;;5071274;28;20081;-73
2022/01/14 07:18:48;;;;;;;23.75;10.23;;;6.10;99.90;;;;;;5068459;28;20049;-73
2022/01/14 07:21:16;;;;;;;16.67;10.48;;;6.00;99.90;;;;;;5070713;28;20106;-73
2022/01/14 07:23:44;;;;;;;19.30;9.63;;;6.10;99.90;;;;;;5072450;28;20110;-74
2022/01/14 07:26:11;;;;;;;22.95;10.10;;;6.10;99.90;;;;;;5069647;28;20044;-74
2022/01/14 07:28:38;;;;;;;22.05;10.10;;;6.10;99.90;;;;;;5067029;28;20041;-74
2022/01/14 07:31:05;;;;;;;24.92;10.73;;;6.10;99.90;;;;;;5059266;28;20099;-74
2022/01/14 07:33:32;;;;;;;23.02;10.95;;;6.10;99.90;;;;;;5067731;28;20457;-74
2022/01/14 07:35:59;;;;;;;21.27;10.13;;;6.10;99.90;;;;;;5070723;28;20049;-73
2022/01/14 07:38:26;;;;;;;19.23;9.57;;;6.10;99.90;;;;;;5064309;28;20052;-74
2022/01/14 07:40:54;;;;;;;15.77;9.25;;;6.10;99.90;;;;;;5059240;28;20151;-74
2022/01/14 07:43:21;;;;;;;21.15;9.88;;;6.20;99.90;;;;;;5072653;28;20053;-74
2022/01/14 07:45:49;;;;;;;19.85;9.80;;;6.20;99.90;;;;;;5070975;28;20143;-74
2022/01/14 07:48:16;;;;;;;19.70;8.95;;;6.30;99.90;;;;;;5072158;28;20114;-74
2022/01/14 07:50:43;;;;;;;21.85;8.82;;;6.30;99.90;;;;;;5067450;28;20060;-74
2022/01/14 07:53:10;;;;;;;21.08;8.88;;;6.20;99.90;;;;;;5062045;28;20165;-74
2022/01/14 07:55:37;;;;;;;14.07;7.97;;;6.20;99.90;;;;;;5068809;28;20173;-74
2022/01/14 07:58:06;;;;;;;24.15;9.00;;;6.20;99.90;;;;;;5062715;28;20049;-74
2022/01/14 08:00:34;;;;;;;19.83;8.80;;;6.20;99.90;;;;;;5071480;28;20462;-74
2022/01/14 08:03:01;;;;;;;23.63;8.27;;;6.20;99.90;;;;;;5072734;28;20056;-74
2022/01/14 08:05:28;;;;;;;18.25;7.90;;;6.20;99.90;;;;;;5059397;28;20107;-73
2022/01/14 08:07:57;;;;;;;16.35;7.72;;;6.20;99.90;;;;;;5067526;28;20048;-74
2022/01/14 08:10:24;;;;;;;17.50;9.10;;;6.20;99.90;;;;;;5059173;28;20463;-74
2022/01/14 08:12:51;;;;;;;15.27;7.60;;;6.20;99.90;;;;;;5052168;28;20049;-75
2022/01/14 08:15:19;;;;;;;14.95;7.35;;;6.20;99.90;;;;;;5054345;28;20636;-73
2022/01/14 08:17:46;;;;;;;17.17;7.35;;;6.20;99.90;;;;;;5061814;28;20049;-75
2022/01/14 08:20:13;;;;;;;20.13;7.25;;;6.30;99.90;;;;;;5065503;28;20048;-75
2022/01/14 08:22:40;;;;;;;17.35;7.30;;;6.30;99.90;;;;;;5065281;28;20149;-75
2022/01/14 08:25:09;;;;;;;15.23;6.65;;;6.30;99.90;;;;;;5088787;28;20130;-74
2022/01/14 08:27:36;;;;;;;16.23;7.70;;;6.30;99.90;;;;;;5071953;28;20098;-76
2022/01/14 08:30:05;;;;;;;15.18;6.82;;;6.30;99.90;;;;;;5057486;28;20056;-74
2022/01/14 08:32:33;;;;;;;14.95;7.38;;;6.30;99.90;;;;;;5057646;28;20052;-76
2022/01/14 08:35:00;;;;;;;10.63;6.38;;;6.40;99.90;;;;;;5069573;28;20450;-75
2022/01/14 08:37:27;;;;;;;18.33;7.40;;;6.40;99.90;;;;;;5070214;28;20434;-75
2022/01/14 08:39:54;;;;;;;16.58;7.07;;;6.40;99.90;;;;;;5070141;28;20102;-74
2022/01/14 08:42:21;;;;;;;21.40;6.32;;;6.50;99.90;;;;;;5059848;28;20052;-74
2022/01/14 08:44:48;;;;;;;19.23;7.63;;;6.50;99.90;;;;;;5069809;28;20052;-75
2022/01/14 08:47:15;;;;;;;21.75;6.95;;;6.60;99.90;;;;;;5051875;28;20061;-74
2022/01/14 08:49:44;;;;;;;12.90;6.50;;;6.50;99.90;;;;;;5057743;28;20048;-73
2022/01/14 08:52:13;;;;;;;12.55;5.65;;;6.60;99.90;;;;;;5072924;28;20044;-74
2022/01/14 08:54:41;;;;;;;22.25;5.97;;;6.70;99.90;;;;;;5067032;28;20076;-75
2022/01/14 08:57:08;;;;;;;13.18;5.35;;;6.70;99.90;;;;;;5070998;28;20060;-75
2022/01/14 08:59:36;;;;;;;14.90;5.43;;;6.70;99.90;;;;;;5071591;28;20582;-76
2022/01/14 09:02:04;;;;;;;15.38;5.60;;;6.80;99.90;;;;;;5058667;28;20500;-75
2022/01/14 09:04:30;;;;;;;16.65;6.05;;;6.80;99.90;;;;;;5062169;28;20143;-75
2022/01/14 09:06:59;;;;;;;19.48;6.95;;;6.90;99.90;;;;;;5070856;28;20569;-74
2022/01/14 09:09:26;;;;;;;12.43;4.43;;;6.90;99.90;;;;;;5070864;28;20049;-73
2022/01/14 09:11:52;;;;;;;16.20;5.28;;;6.90;99.90;;;;;;5064512;28;21703;-74
2022/01/14 09:14:21;;;;;;;14.40;4.82;;;7.00;99.90;;;;;;5071253;28;20109;-74
2022/01/14 09:16:48;;;;;;;14.20;5.30;;;7.00;99.90;;;;;;5061069;28;20067;-75
2022/01/14 09:19:15;;;;;;;8.00;4.45;;;7.00;99.90;;;;;;5070975;28;20097;-74
2022/01/14 09:21:44;;;;;;;12.15;4.72;;;7.20;99.90;;;;;;5069277;28;20122;-74
2022/01/14 09:24:12;;;;;;;14.18;4.50;;;7.20;99.90;;;;;;5053132;28;20408;-75
2022/01/14 09:26:40;;;;;;;14.93;5.03;;;7.20;99.90;;;;;;5056943;28;20106;-75
2022/01/14 09:29:08;;;;;;;11.18;4.85;;;7.20;99.90;;;;;;5062627;28;20121;-75
2022/01/14 09:31:36;;;;;;;12.10;4.53;;;7.30;99.90;;;;;;5055617;28;20053;-73
2022/01/14 09:34:03;;;;;;;11.45;4.65;;;7.30;99.90;;;;;;5055244;28;20060;-74
2022/01/14 09:36:30;;;;;;;9.77;4.00;;;7.30;99.90;;;;;;5071027;28;20052;-75
2022/01/14 09:38:57;;;;;;;11.68;3.90;;;7.30;99.90;;;;;;5069483;28;20129;-73
2022/01/14 09:41:26;;;;;;;10.95;4.80;;;7.40;99.90;;;;;;5054496;28;20059;-74
2022/01/14 09:43:53;;;;;;;13.73;4.40;;;7.40;99.90;;;;;;5070460;28;20064;-75
2022/01/14 09:46:20;;;;;;;11.40;4.22;;;7.40;99.90;;;;;;5066732;28;20107;-75
2022/01/14 09:48:50;;;;;;;15.50;4.57;;;7.40;99.90;;;;;;5049970;28;20077;-75
2022/01/14 09:51:17;;;;;;;12.33;4.67;;;7.40;99.90;;;;;;5050236;28;20135;-75
2022/01/14 09:53:44;;;;;;;13.50;3.97;;;7.50;99.90;;;;;;5068131;28;20573;-75
2022/01/14 09:56:15;;;;;;;15.65;3.78;;;7.50;99.90;;;;;;5070719;28;20102;-75
2022/01/14 09:58:47;;;;;;;13.38;4.25;;;7.50;99.90;;;;;;5063564;28;20049;-74
2022/01/14 10:01:17;;;;;;;15.50;3.92;;;7.60;99.90;;;;;;5066868;28;20540;-75
2022/01/14 10:03:55;;;;;;;15.40;4.15;;;7.70;99.90;;;;;;5051269;28;20570;-76
2022/01/14 10:06:44;;;;;;;14.25;3.35;;;7.70;99.90;;;;;;5053553;28;20048;-73
2022/01/14 10:09:15;;;;;;;13.77;4.00;;;7.70;99.90;;;;;;5051626;28;20045;-75
2022/01/14 10:11:43;;;;;;;12.40;3.75;;;7.70;99.90;;;;;;5059627;28;20158;-75
2022/01/14 10:14:15;;;;;;;14.88;4.20;;;7.80;99.90;;;;;;5056774;28;20055;-75
2022/01/14 10:16:43;;;;;;;11.02;3.97;;;7.70;99.90;;;;;;5063197;28;20412;-74
2022/01/14 10:19:21;;;;;;;16.52;4.50;;;7.70;99.90;;;;;;5077110;28;20119;-75
2022/01/14 10:21:49;;;;;;;12.20;3.50;;;7.70;99.90;;;;;;5076260;28;20048;-74
2022/01/14 10:24:16;;;;;;;16.75;4.03;;;7.80;99.90;;;;;;5077263;28;20102;-75
2022/01/14 10:26:50;;;;;;;15.43;3.70;;;7.70;99.90;;;;;;5076872;28;20064;-75
2022/01/14 10:29:32;;;;;;;12.38;4.10;;;7.80;99.90;;;;;;5071496;28;20543;-74
2022/01/14 10:32:00;;;;;;;12.90;3.88;;;7.80;99.90;;;;;;5072387;28;20094;-74
2022/01/14 10:34:27;;;;;;;6.15;2.90;;;7.80;99.90;;;;;;5075485;28;20048;-75
2022/01/14 10:37:13;;;;;;;9.05;3.30;;;7.80;99.90;;;;;;5072843;28;20067;-75
2022/01/14 10:39:46;;;;;;;15.35;4.28;;;7.80;99.90;;;;;;5076714;28;20049;-75
2022/01/14 10:42:24;;;;;;;7.47;2.70;;;7.80;99.90;;;;;;5094615;28;20135;-75
2022/01/14 10:44:53;;;;;;;12.52;3.47;;;7.90;99.90;;;;;;5077833;28;20505;-75
2022/01/14 10:47:22;;;;;;;10.43;4.20;;;7.90;99.90;;;;;;5094340;28;20082;-75
2022/01/14 10:49:51;;;;;;;7.82;3.22;;;7.80;99.90;;;;;;5072437;28;20044;-75
2022/01/14 10:52:20;;;;;;;8.68;3.53;;;7.80;99.90;;;;;;5068336;28;20048;-75
2022/01/14 10:54:49;;;;;;;16.38;3.50;;;7.80;99.90;;;;;;5083734;28;20091;-75
2022/01/14 10:57:19;;;;;;;16.10;4.30;;;7.90;99.90;;;;;;5076300;28;20517;-74
2022/01/14 10:59:49;;;;;;;15.87;4.27;;;7.90;99.90;;;;;;5073928;28;20385;-75
2022/01/14 11:02:35;;;;;;;16.38;4.18;;;7.90;99.90;;;;;;5076694;28;20059;-79
2022/01/14 11:05:10;;;;;;;12.90;3.30;;;7.90;99.90;;;;;;5077387;28;20122;-75
2022/01/14 11:07:40;;;;;;;11.73;3.75;;;7.90;99.90;;;;;;5094520;28;20060;-75
2022/01/14 11:10:20;;;;;;;9.93;3.53;;;7.90;99.90;;;;;;5076721;28;20076;-75
2022/01/14 11:12:48;;;;;;;10.90;3.80;;;7.90;99.90;;;;;;5079139;28;20393;-75
2022/01/14 11:15:15;;;;;;;8.05;3.72;;;7.90;99.90;;;;;;5077663;28;20056;-75
2022/01/14 11:17:46;;;;;;;17.08;3.88;;;8.00;99.90;;;;;;5077116;28;20081;-75
2022/01/14 11:20:14;;;;;;;16.08;4.72;;;7.90;99.90;;;;;;5093941;28;20127;-75
2022/01/14 11:25:25;;;;;;;9.75;4.30;;;7.90;99.90;;;;;;5073811;28;20060;-74
2022/01/14 11:27:56;;;;;;;13.85;4.80;;;7.90;99.90;;;;;;5074827;28;20098;-74
2022/01/14 11:30:33;;;;;;;10.50;4.93;;;7.90;99.90;;;;;;5074593;28;20048;-75
2022/01/14 11:33:03;;;;;;;15.38;4.63;;;7.90;99.90;;;;;;5072129;28;20084;-76
2022/01/14 11:35:31;;;;;;;19.10;4.95;;;7.90;99.90;;;;;;5074118;28;20377;-74
2022/01/14 11:37:58;;;;;;;14.38;4.68;;;7.90;99.90;;;;;;5077567;28;20053;-73
2022/01/14 11:40:26;;;;;;;14.35;4.97;;;7.90;99.90;;;;;;5073424;28;20052;-75
2022/01/14 11:42:58;;;;;;;27.25;4.97;;;7.90;99.90;;;;;;5070680;28;20048;-72
2022/01/14 11:45:53;;;;;;;15.73;4.55;;;7.90;99.90;;;;;;5073399;28;21367;-74
2022/01/14 11:48:33;;;;;;;12.15;4.07;;;7.90;99.90;;;;;;5075217;28;20055;-74
2022/01/14 11:51:01;;;;;;;18.00;5.35;;;7.90;99.90;;;;;;5076364;28;20049;-74
2022/01/14 11:53:43;;;;;;;19.58;4.63;;;7.90;99.90;;;;;;5082248;28;20094;-75
2022/01/14 11:56:47;;;;;;;21.55;4.65;;;7.90;99.90;;;;;;5098754;28;20048;-75
2022/01/14 11:59:47;;;;;;;10.35;4.25;;;7.90;99.90;;;;;;5080266;28;20048;-74
2022/01/14 12:02:41;;;;;;;10.25;3.70;;;7.90;99.90;;;;;;5025085;28;20056;-75
2022/01/14 12:05:23;;;;;;;14.63;4.30;;;7.90;99.90;;;;;;5075978;28;20064;-75
2022/01/14 12:08:21;;;;;;;10.85;4.90;;;7.90;99.90;;;;;;5077099;28;20492;-75
2022/01/14 12:10:59;;;;;;;14.27;4.50;;;8.00;99.90;;;;;;5074982;28;20056;-74
2022/01/14 12:13:38;;;;;;;19.08;5.07;;;8.00;99.90;;;;;;5075110;28;20052;-74
2022/01/14 12:16:09;;;;;;;10.40;4.75;;;8.00;99.90;;;;;;5074837;28;20054;-74
2022/01/14 12:19:14;;;;;;;12.45;4.20;;;8.00;99.90;;;;;;5074567;28;20053;-74
2022/01/14 12:22:03;;;;;;;12.00;4.50;;;8.00;99.90;;;;;;5073060;28;20559;-75
2022/01/14 12:24:52;;;;;;;16.27;4.60;;;8.10;99.90;;;;;;5073517;28;20530;-74
2022/01/14 12:27:40;;;;;;;22.15;5.03;;;8.00;99.90;;;;;;5072948;28;20053;-75
2022/01/14 12:30:14;;;;;;;16.95;4.13;;;8.00;99.90;;;;;;5089940;28;20094;-75
2022/01/14 12:32:42;;;;;;;12.05;3.90;;;8.00;99.90;;;;;;5074222;28;20056;-75
2022/01/14 12:35:12;;;;;;;20.63;5.07;;;8.00;99.90;;;;;;5073096;28;20060;-75
2022/01/14 12:37:43;;;;;;;13.02;4.80;;;8.00;99.90;;;;;;5090359;28;20052;-74
2022/01/14 12:40:13;;;;;;;15.70;4.82;;;8.00;99.90;;;;;;5073428;28;20048;-76
2022/01/14 12:42:44;;;;;;;19.85;4.45;;;7.90;99.90;;;;;;5089435;28;20044;-75
2022/01/14 12:45:34;;;;;;;17.73;5.05;;;7.90;99.90;;;;;;5073365;28;20045;-75
2022/01/14 12:48:18;;;;;;;14.02;4.85;;;7.90;99.90;;;;;;5073162;28;20518;-75
2022/01/14 12:50:45;;;;;;;18.25;4.80;;;8.00;99.90;;;;;;5072766;28;20153;-75
2022/01/14 12:53:17;;;;;;;14.65;4.65;;;8.00;99.90;;;;;;5073105;28;20052;-74
2022/01/14 12:55:44;;;;;;;17.45;5.38;;;8.00;99.90;;;;;;5088947;28;20048;-74
2022/01/14 12:58:12;;;;;;;15.27;4.65;;;8.10;99.90;;;;;;5073068;28;20048;-75
2022/01/14 13:00:39;;;;;;;14.80;5.80;;;8.00;99.90;;;;;;5089264;28;20058;-75
2022/01/14 13:03:12;;;;;;;17.30;5.97;;;8.00;99.90;;;;;;5088912;28;20500;-75
2022/01/14 13:05:39;;;;;;;19.05;6.13;;;8.00;99.90;;;;;;5089379;28;20101;-75
2022/01/14 13:08:06;;;;;;;22.25;4.97;;;8.00;99.90;;;;;;5072782;28;20110;-74